Terminal Aerodrome Forecast
Issued by NWS Brownsville, TX

Home | Current Version | Previous Version | Text Only | Print | Product List | Glossary On
Versions: 1 2 3 4 5 6 7 8 9 10 11 12 13 14 15 16 17 18 19 20 21 22
000
FTUS44 KBRO 021453 AAA
TAFBRO
TAF AMD
KBRO 021453Z 0215/0312 35008KT 3/4SM -DZ BR OVC002
     FM021700 33008KT 5SM -DZ BR OVC007
     FM030200 06005KT 5SM BR OVC004=

USA.gov is the U.S. government's official web portal to all federal, state and local government web resources and services.